Time;durP1;ratioP1;P1;durP2;ratioP2;P2;SDS_P1;SDS_P2;PMS_P1;PMS_P2;Temp;Humidity;BMP_temperature;BMP_pressure;BME280_temperature;BME280_humidity;BME280_pressure;Samples;Min_cycle;Max_cycle;Signal;HPM_P1;HPM_P2
2023/02/03 00:00:17;;;;;;;1.05;0.80;;;;;;;;;;5008969;28;20806;-79
2023/02/03 00:02:43;;;;;;;2.60;0.95;;;;;;;;;;5008151;28;20435;-78
2023/02/03 00:05:08;;;;;;;2.20;1.30;;;;;;;;;;5012842;28;20410;-78
2023/02/03 00:07:34;;;;;;;1.83;0.90;;;;;;;;;;5010104;28;20885;-77
2023/02/03 00:10:00;;;;;;;2.20;1.35;;;;;;;;;;5009911;28;20342;-71
2023/02/03 00:12:26;;;;;;;4.80;1.30;;;;;;;;;;5008436;28;20033;-72
2023/02/03 00:14:51;;;;;;;2.25;0.93;;;;;;;;;;5010739;28;20156;-74
2023/02/03 00:17:16;;;;;;;1.67;0.95;;;;;;;;;;5009328;28;20025;-76
2023/02/03 00:19:41;;;;;;;0.80;0.70;;;;;;;;;;5005799;28;20026;-76
2023/02/03 00:22:06;;;;;;;1.27;0.70;;;;;;;;;;5009073;28;20277;-77
2023/02/03 00:24:32;;;;;;;1.57;0.90;;;;;;;;;;5008208;28;20128;-74
2023/02/03 00:26:57;;;;;;;0.80;0.70;;;;;;;;;;5014928;28;20488;-75
2023/02/03 00:29:24;;;;;;;1.37;0.70;;;;;;;;;;5011602;28;20755;-70
2023/02/03 00:31:50;;;;;;;1.23;0.90;;;;;;;;;;5008640;28;20296;-70
2023/02/03 00:34:15;;;;;;;2.67;1.15;;;;;;;;;;5006763;28;20491;-68
2023/02/03 00:36:40;;;;;;;0.80;0.70;;;;;;;;;;5009856;28;20053;-70
2023/02/03 00:39:05;;;;;;;1.33;0.85;;;;;;;;;;5007472;28;20285;-72
2023/02/03 00:41:31;;;;;;;2.60;0.77;;;;;;;;;;4990989;28;20420;-70
2023/02/03 00:43:56;;;;;;;1.95;1.00;;;;;;;;;;5009841;28;20759;-71
2023/02/03 00:46:21;;;;;;;1.52;0.70;;;;;;;;;;5009437;28;20350;-73
2023/02/03 00:48:46;;;;;;;0.97;0.70;;;;;;;;;;5009373;28;20567;-72
2023/02/03 00:51:12;;;;;;;0.93;0.80;;;;;;;;;;5007064;28;20276;-72
2023/02/03 00:53:37;;;;;;;0.70;0.70;;;;;;;;;;5008157;28;20473;-73
2023/02/03 00:56:02;;;;;;;1.35;0.90;;;;;;;;;;5006989;28;20065;-75
2023/02/03 00:58:27;;;;;;;0.88;0.70;;;;;;;;;;5013361;28;20030;-70
2023/02/03 01:00:54;;;;;;;0.98;0.88;;;;;;;;;;5011078;28;20087;-74
2023/02/03 01:03:19;;;;;;;2.97;0.90;;;;;;;;;;5007558;28;20029;-72
2023/02/03 01:05:44;;;;;;;1.70;1.07;;;;;;;;;;5009409;28;20484;-74
2023/02/03 01:08:10;;;;;;;1.33;0.70;;;;;;;;;;5005914;28;20763;-71
2023/02/03 01:10:36;;;;;;;2.00;0.80;;;;;;;;;;5008947;28;21141;-69
2023/02/03 01:13:01;;;;;;;1.63;0.88;;;;;;;;;;5006670;28;20321;-68
2023/02/03 01:15:26;;;;;;;4.03;1.00;;;;;;;;;;5008200;28;20124;-72
2023/02/03 01:17:52;;;;;;;0.67;0.57;;;;;;;;;;5008489;28;20420;-70
2023/02/03 01:20:17;;;;;;;1.67;0.90;;;;;;;;;;5008708;28;20335;-71
2023/02/03 01:22:42;;;;;;;2.25;0.98;;;;;;;;;;5007040;28;20288;-71
2023/02/03 01:25:07;;;;;;;1.43;0.70;;;;;;;;;;5006479;28;20029;-72
2023/02/03 01:27:33;;;;;;;3.15;0.93;;;;;;;;;;5007410;28;20281;-73
2023/02/03 01:29:58;;;;;;;2.50;0.77;;;;;;;;;;5010645;28;20029;-69
2023/02/03 01:32:23;;;;;;;2.77;0.90;;;;;;;;;;5013194;28;20547;-69
2023/02/03 01:34:49;;;;;;;1.73;0.80;;;;;;;;;;5007716;28;20764;-69
2023/02/03 01:37:16;;;;;;;3.13;1.67;;;;;;;;;;5008670;28;20105;-73
2023/02/03 01:39:41;;;;;;;1.10;0.70;;;;;;;;;;5005657;28;20053;-70
2023/02/03 01:42:07;;;;;;;1.88;1.30;;;;;;;;;;5001925;28;20488;-75
2023/02/03 01:44:39;;;;;;;2.47;1.00;;;;;;;;;;5008012;28;20116;-71
2023/02/03 01:47:10;;;;;;;1.33;1.00;;;;;;;;;;4990699;28;20160;-70
2023/02/03 01:49:37;;;;;;;0.70;0.70;;;;;;;;;;5006813;28;20080;-70
2023/02/03 01:52:03;;;;;;;0.88;0.73;;;;;;;;;;5006481;28;20105;-71
2023/02/03 01:54:30;;;;;;;2.42;0.90;;;;;;;;;;5007994;28;20532;-69
2023/02/03 01:57:00;;;;;;;0.85;0.80;;;;;;;;;;5003830;28;20109;-69
2023/02/03 01:59:27;;;;;;;2.30;1.00;;;;;;;;;;5008591;28;20021;-70
2023/02/03 02:01:53;;;;;;;2.85;0.98;;;;;;;;;;5009531;28;20053;-72
2023/02/03 02:04:19;;;;;;;3.17;0.90;;;;;;;;;;4995196;28;20029;-74
2023/02/03 02:06:46;;;;;;;1.83;1.15;;;;;;;;;;5008337;28;20037;-72
2023/02/03 02:09:12;;;;;;;4.00;0.80;;;;;;;;;;5008280;28;20412;-71
2023/02/03 02:11:37;;;;;;;1.55;0.93;;;;;;;;;;5008422;28;20056;-72
2023/02/03 02:14:03;;;;;;;1.83;0.90;;;;;;;;;;5005441;28;20706;-73
2023/02/03 02:16:37;;;;;;;4.72;0.93;;;;;;;;;;5007026;28;20018;-74
2023/02/03 02:19:05;;;;;;;1.73;0.95;;;;;;;;;;5001129;28;20033;-77
2023/02/03 02:21:42;;;;;;;2.22;1.58;;;;;;;;;;5008040;28;20342;-74
2023/02/03 02:24:23;;;;;;;3.58;1.20;;;;;;;;;;5006485;28;20053;-71
2023/02/03 02:27:07;;;;;;;1.67;0.98;;;;;;;;;;5007720;28;20021;-71
2023/02/03 02:29:51;;;;;;;2.40;1.08;;;;;;;;;;5008113;28;20040;-69
2023/02/03 02:32:34;;;;;;;2.55;1.10;;;;;;;;;;5004913;28;20164;-71
2023/02/03 02:35:18;;;;;;;1.15;1.05;;;;;;;;;;5015873;28;20060;-70
2023/02/03 02:37:47;;;;;;;3.25;1.10;;;;;;;;;;5008380;28;20022;-77
2023/02/03 02:40:30;;;;;;;1.23;1.02;;;;;;;;;;5012660;28;20022;-70
2023/02/03 02:42:59;;;;;;;4.10;1.08;;;;;;;;;;5007891;28;20054;-70
2023/02/03 02:45:38;;;;;;;3.03;1.88;;;;;;;;;;5004491;28;20034;-71
2023/02/03 02:48:14;;;;;;;4.70;1.60;;;;;;;;;;5006890;28;20030;-72
2023/02/03 02:50:42;;;;;;;2.10;1.38;;;;;;;;;;5010523;28;20093;-71
2023/02/03 02:53:07;;;;;;;1.50;0.98;;;;;;;;;;5007236;28;20465;-74
2023/02/03 02:55:34;;;;;;;1.50;0.95;;;;;;;;;;5009747;28;20087;-79
2023/02/03 02:58:05;;;;;;;2.10;1.17;;;;;;;;;;5008171;28;20041;-80
2023/02/03 03:00:33;;;;;;;3.83;1.60;;;;;;;;;;5007130;28;20512;-68
2023/02/03 03:03:06;;;;;;;2.40;1.00;;;;;;;;;;5017577;28;20018;-67
2023/02/03 03:05:31;;;;;;;1.50;1.17;;;;;;;;;;5008609;28;20037;-68
2023/02/03 03:08:01;;;;;;;1.92;1.20;;;;;;;;;;5017975;28;20026;-69
2023/02/03 03:10:29;;;;;;;1.35;1.02;;;;;;;;;;5016220;28;20025;-68
2023/02/03 03:12:58;;;;;;;2.03;0.85;;;;;;;;;;5015287;28;20029;-67
2023/02/03 03:15:25;;;;;;;2.50;1.48;;;;;;;;;;5012360;28;20468;-71
2023/02/03 03:17:54;;;;;;;5.75;1.75;;;;;;;;;;5013524;28;20108;-70
2023/02/03 03:20:21;;;;;;;2.58;1.13;;;;;;;;;;5012179;28;20036;-70
2023/02/03 03:22:54;;;;;;;2.30;0.90;;;;;;;;;;5013894;28;20025;-72
2023/02/03 03:25:22;;;;;;;1.45;0.98;;;;;;;;;;5011861;28;20018;-71
2023/02/03 03:27:54;;;;;;;1.88;0.90;;;;;;;;;;5015780;28;20072;-72
2023/02/03 03:30:22;;;;;;;0.93;0.90;;;;;;;;;;5011201;28;20022;-72
2023/02/03 03:32:47;;;;;;;3.35;0.77;;;;;;;;;;5013936;28;20044;-71
2023/02/03 03:35:13;;;;;;;0.88;0.75;;;;;;;;;;5013612;28;20026;-75
2023/02/03 03:37:50;;;;;;;1.17;0.87;;;;;;;;;;5012550;28;20030;-75
2023/02/03 03:40:25;;;;;;;1.40;1.00;;;;;;;;;;5017998;28;20284;-75
2023/02/03 03:42:57;;;;;;;2.58;0.90;;;;;;;;;;5012606;28;20025;-75
2023/02/03 03:45:34;;;;;;;1.55;0.70;;;;;;;;;;5012676;28;20029;-75
2023/02/03 03:48:05;;;;;;;0.70;0.60;;;;;;;;;;5012946;28;20068;-75
2023/02/03 03:50:33;;;;;;;1.00;0.70;;;;;;;;;;5008703;28;20105;-76
2023/02/03 03:53:00;;;;;;;1.00;0.77;;;;;;;;;;5009600;28;20045;-71
2023/02/03 03:55:26;;;;;;;1.15;0.73;;;;;;;;;;5014155;28;20030;-75
2023/02/03 03:58:00;;;;;;;2.92;0.70;;;;;;;;;;5012155;28;20018;-76
2023/02/03 04:00:27;;;;;;;1.02;0.70;;;;;;;;;;5011841;28;20037;-76
2023/02/03 04:02:54;;;;;;;2.47;0.80;;;;;;;;;;5011442;28;20025;-76
2023/02/03 04:05:20;;;;;;;1.10;0.68;;;;;;;;;;5012154;28;20021;-78
2023/02/03 04:07:46;;;;;;;1.40;0.60;;;;;;;;;;5011796;28;20400;-75
2023/02/03 04:10:22;;;;;;;2.95;0.70;;;;;;;;;;5011102;28;20037;-71
2023/02/03 04:12:47;;;;;;;3.45;0.70;;;;;;;;;;5014445;28;20064;-79
2023/02/03 04:15:12;;;;;;;1.38;0.70;;;;;;;;;;5014254;28;20053;-80
2023/02/03 04:17:38;;;;;;;1.17;0.73;;;;;;;;;;5012386;28;20030;-78
2023/02/03 04:20:04;;;;;;;2.92;0.90;;;;;;;;;;5010577;28;20440;-79
2023/02/03 04:22:29;;;;;;;1.30;0.70;;;;;;;;;;5014874;28;20025;-79
2023/02/03 04:24:57;;;;;;;0.90;0.70;;;;;;;;;;5008762;28;20033;-79
2023/02/03 04:27:23;;;;;;;3.55;0.80;;;;;;;;;;5011598;28;20029;-73
2023/02/03 04:29:49;;;;;;;2.03;0.68;;;;;;;;;;5013430;28;20025;-68
2023/02/03 04:32:14;;;;;;;0.70;0.70;;;;;;;;;;5009603;28;20087;-71
2023/02/03 04:34:40;;;;;;;2.05;0.60;;;;;;;;;;5011513;28;20026;-72
2023/02/03 04:37:05;;;;;;;0.90;0.60;;;;;;;;;;5012525;28;20022;-74
2023/02/03 04:39:30;;;;;;;2.17;0.67;;;;;;;;;;5011549;28;20424;-74
2023/02/03 04:41:55;;;;;;;1.83;0.93;;;;;;;;;;5014411;28;20216;-74
2023/02/03 04:44:21;;;;;;;1.00;0.60;;;;;;;;;;5015671;28;20018;-75
2023/02/03 04:46:46;;;;;;;0.60;0.60;;;;;;;;;;5019576;28;20033;-71
2023/02/03 04:49:11;;;;;;;0.60;0.60;;;;;;;;;;5011979;28;20699;-73
2023/02/03 04:51:36;;;;;;;0.75;0.70;;;;;;;;;;5012794;28;20695;-71
2023/02/03 04:54:01;;;;;;;1.23;0.60;;;;;;;;;;5008731;28;20127;-75
2023/02/03 04:56:27;;;;;;;1.03;0.60;;;;;;;;;;5005779;28;20296;-73
2023/02/03 04:58:52;;;;;;;0.70;0.70;;;;;;;;;;5009174;28;20309;-71
2023/02/03 05:01:17;;;;;;;1.50;1.13;;;;;;;;;;5006582;28;20360;-72
2023/02/03 05:03:42;;;;;;;1.20;0.80;;;;;;;;;;5011069;28;20331;-72
2023/02/03 05:06:08;;;;;;;1.23;0.50;;;;;;;;;;5008212;28;20104;-69
2023/02/03 05:08:33;;;;;;;0.93;0.73;;;;;;;;;;5011734;28;20124;-75
2023/02/03 05:10:58;;;;;;;1.77;0.80;;;;;;;;;;5008890;28;20331;-75
2023/02/03 05:13:23;;;;;;;0.75;0.70;;;;;;;;;;5008027;28;20297;-74
2023/02/03 05:15:49;;;;;;;2.00;1.17;;;;;;;;;;5013870;28;20397;-75
2023/02/03 05:18:14;;;;;;;2.30;1.17;;;;;;;;;;5008553;28;20457;-75
2023/02/03 05:20:39;;;;;;;0.77;0.60;;;;;;;;;;5012578;28;20291;-74
2023/02/03 05:23:04;;;;;;;0.87;0.80;;;;;;;;;;5008011;28;20288;-71
2023/02/03 05:25:30;;;;;;;2.45;1.58;;;;;;;;;;5009988;28;20303;-79
2023/02/03 05:27:55;;;;;;;0.88;0.80;;;;;;;;;;5005980;28;20041;-71
2023/02/03 05:30:20;;;;;;;1.70;0.80;;;;;;;;;;5016670;28;20038;-71
2023/02/03 05:32:45;;;;;;;0.80;0.80;;;;;;;;;;5025051;28;20628;-72
2023/02/03 05:35:10;;;;;;;3.27;0.97;;;;;;;;;;4998688;28;20686;-72
2023/02/03 05:37:36;;;;;;;2.90;1.10;;;;;;;;;;5014903;28;20332;-71
2023/02/03 05:42:45;;;;;;;1.80;0.65;;;;;;;;;;5018654;28;20116;-76
2023/02/03 05:45:11;;;;;;;3.60;1.10;;;;;;;;;;5026072;28;20098;-73
2023/02/03 05:47:36;;;;;;;1.57;0.97;;;;;;;;;;5017583;28;20025;-72
2023/02/03 05:50:01;;;;;;;2.60;1.30;;;;;;;;;;5014120;28;20954;-71
2023/02/03 05:52:26;;;;;;;0.93;0.90;;;;;;;;;;5012733;28;20367;-72
2023/02/03 05:54:51;;;;;;;3.67;1.17;;;;;;;;;;5024147;28;20335;-71
2023/02/03 05:57:18;;;;;;;1.93;1.00;;;;;;;;;;5016194;28;20257;-71
2023/02/03 05:59:43;;;;;;;2.25;0.95;;;;;;;;;;5008481;28;20025;-71
2023/02/03 06:02:08;;;;;;;3.60;1.80;;;;;;;;;;4998029;28;20037;-71
2023/02/03 06:04:33;;;;;;;2.33;0.80;;;;;;;;;;4995762;28;20335;-78
2023/02/03 06:06:58;;;;;;;2.63;1.40;;;;;;;;;;4997063;28;20335;-76
2023/02/03 06:09:24;;;;;;;2.42;1.10;;;;;;;;;;4997676;28;20680;-75
2023/02/03 06:11:49;;;;;;;2.67;1.00;;;;;;;;;;4996893;28;20028;-77
2023/02/03 06:14:14;;;;;;;3.20;1.13;;;;;;;;;;4995757;28;20026;-75
2023/02/03 06:16:39;;;;;;;4.50;1.10;;;;;;;;;;4998176;28;20385;-77
2023/02/03 06:19:05;;;;;;;6.17;2.30;;;;;;;;;;5008153;28;20492;-71
2023/02/03 06:21:30;;;;;;;1.13;0.80;;;;;;;;;;4994849;28;20771;-70
2023/02/03 06:23:55;;;;;;;1.67;1.10;;;;;;;;;;5006738;28;20308;-67
2023/02/03 06:26:20;;;;;;;3.13;1.10;;;;;;;;;;5009881;28;20261;-69
2023/02/03 06:28:45;;;;;;;2.05;1.30;;;;;;;;;;5005042;28;20112;-70
2023/02/03 06:31:11;;;;;;;3.50;0.90;;;;;;;;;;5009411;28;20473;-66
2023/02/03 06:33:36;;;;;;;1.80;0.83;;;;;;;;;;5009900;28;20290;-69
2023/02/03 06:36:01;;;;;;;3.40;1.00;;;;;;;;;;5008583;28;20309;-68
2023/02/03 06:38:26;;;;;;;1.25;0.88;;;;;;;;;;5014908;28;20289;-78
2023/02/03 06:40:52;;;;;;;2.75;1.25;;;;;;;;;;5008009;28;20372;-70
2023/02/03 06:43:17;;;;;;;1.63;1.30;;;;;;;;;;5012412;28;20025;-72
2023/02/03 06:45:48;;;;;;;3.03;1.02;;;;;;;;;;5007449;28;20328;-70
2023/02/03 06:48:14;;;;;;;5.03;1.35;;;;;;;;;;5008495;28;20068;-71
2023/02/03 06:50:39;;;;;;;1.55;1.13;;;;;;;;;;5020449;28;20053;-71
2023/02/03 06:53:04;;;;;;;2.88;0.82;;;;;;;;;;5020683;28;20037;-71
2023/02/03 06:55:29;;;;;;;4.68;1.27;;;;;;;;;;5022211;28;20032;-69
2023/02/03 06:57:55;;;;;;;2.57;1.43;;;;;;;;;;5018794;28;20381;-68
2023/02/03 07:00:21;;;;;;;1.83;0.98;;;;;;;;;;5013357;28;20108;-69
2023/02/03 07:02:51;;;;;;;3.30;1.10;;;;;;;;;;5008311;28;20033;-69
2023/02/03 07:05:16;;;;;;;1.48;0.82;;;;;;;;;;5006333;28;20014;-70
2023/02/03 07:07:42;;;;;;;6.13;1.35;;;;;;;;;;5004949;28;20453;-70
2023/02/03 07:10:07;;;;;;;3.20;1.08;;;;;;;;;;5005054;28;20160;-69
2023/02/03 07:12:32;;;;;;;4.43;1.10;;;;;;;;;;5010912;28;20068;-69
2023/02/03 07:14:58;;;;;;;2.50;1.30;;;;;;;;;;5008256;28;20032;-69
2023/02/03 07:17:23;;;;;;;3.17;1.55;;;;;;;;;;5008965;28;20038;-76
2023/02/03 07:19:48;;;;;;;1.47;1.00;;;;;;;;;;5006496;28;20058;-75
2023/02/03 07:22:13;;;;;;;1.93;1.50;;;;;;;;;;5014862;28;20280;-75
2023/02/03 07:24:39;;;;;;;3.17;1.40;;;;;;;;;;5010641;28;20289;-77
2023/02/03 07:27:04;;;;;;;2.03;1.20;;;;;;;;;;5007863;28;20141;-75
2023/02/03 07:29:29;;;;;;;3.60;1.17;;;;;;;;;;5006468;28;20022;-76
2023/02/03 07:31:54;;;;;;;1.30;1.13;;;;;;;;;;5007767;28;20034;-74
2023/02/03 07:34:20;;;;;;;2.63;1.13;;;;;;;;;;5008245;28;20309;-72
2023/02/03 07:36:45;;;;;;;3.87;1.23;;;;;;;;;;5008586;28;20117;-70
2023/02/03 07:39:10;;;;;;;2.83;1.00;;;;;;;;;;5008813;28;20273;-69
2023/02/03 07:41:35;;;;;;;3.20;1.40;;;;;;;;;;4990054;28;20308;-70
2023/02/03 07:44:01;;;;;;;1.67;1.10;;;;;;;;;;5007326;28;20479;-70
2023/02/03 07:46:26;;;;;;;1.73;1.15;;;;;;;;;;5006897;28;20759;-69
2023/02/03 07:48:51;;;;;;;1.77;1.48;;;;;;;;;;5009065;28;20014;-68
2023/02/03 07:51:16;;;;;;;3.67;1.10;;;;;;;;;;5011474;28;20026;-68
2023/02/03 07:53:42;;;;;;;8.93;1.20;;;;;;;;;;4996609;28;20312;-70
2023/02/03 07:56:07;;;;;;;2.70;1.38;;;;;;;;;;5015778;28;20807;-69
2023/02/03 07:58:32;;;;;;;1.93;1.20;;;;;;;;;;5011239;28;20053;-68
2023/02/03 08:00:58;;;;;;;1.30;1.10;;;;;;;;;;5006835;28;20348;-67
2023/02/03 08:03:23;;;;;;;5.55;1.75;;;;;;;;;;5012076;28;20284;-69
2023/02/03 08:05:49;;;;;;;2.30;1.37;;;;;;;;;;5011223;28;20038;-69
2023/02/03 08:08:14;;;;;;;3.47;1.27;;;;;;;;;;5011033;28;20681;-79
2023/02/03 08:10:39;;;;;;;3.63;1.70;;;;;;;;;;5013688;28;20052;-77
2023/02/03 08:13:05;;;;;;;2.80;1.50;;;;;;;;;;5010623;28;20129;-74
2023/02/03 08:15:30;;;;;;;3.80;1.25;;;;;;;;;;5010059;28;20320;-74
2023/02/03 08:17:55;;;;;;;2.72;1.60;;;;;;;;;;5010462;28;20013;-74
2023/02/03 08:20:21;;;;;;;3.30;1.48;;;;;;;;;;5011065;28;20030;-72
2023/02/03 08:22:46;;;;;;;2.50;1.77;;;;;;;;;;5010524;28;20427;-73
2023/02/03 08:25:11;;;;;;;2.25;1.30;;;;;;;;;;5010068;28;20041;-74
2023/02/03 08:27:38;;;;;;;1.65;1.35;;;;;;;;;;5018118;28;20026;-73
2023/02/03 08:30:07;;;;;;;4.80;1.90;;;;;;;;;;5013602;28;20021;-72
2023/02/03 08:32:33;;;;;;;4.25;1.50;;;;;;;;;;5010122;28;20160;-68
2023/02/03 08:34:58;;;;;;;3.15;1.23;;;;;;;;;;5009211;28;20105;-69
2023/02/03 08:37:23;;;;;;;3.77;1.60;;;;;;;;;;5010744;28;20041;-69
2023/02/03 08:39:49;;;;;;;4.63;2.53;;;;;;;;;;5010388;28;20287;-71
2023/02/03 08:42:14;;;;;;;6.10;1.70;;;;;;;;;;5011933;28;20480;-70
2023/02/03 08:44:40;;;;;;;4.25;1.83;;;;;;;;;;5009937;28;20014;-70
2023/02/03 08:47:06;;;;;;;3.75;1.55;;;;;;;;;;5010057;28;20029;-74
2023/02/03 08:49:31;;;;;;;4.03;1.65;;;;;;;;;;5010846;28;20465;-76
2023/02/03 08:51:57;;;;;;;2.87;1.23;;;;;;;;;;5010054;28;20041;-76
2023/02/03 08:54:22;;;;;;;2.97;1.65;;;;;;;;;;5010319;28;20296;-74
2023/02/03 08:56:48;;;;;;;3.17;1.30;;;;;;;;;;5009438;28;20037;-74
2023/02/03 08:59:14;;;;;;;3.10;1.77;;;;;;;;;;5018046;28;20109;-73
2023/02/03 09:01:39;;;;;;;4.95;1.40;;;;;;;;;;5006858;28;20291;-73
2023/02/03 09:04:07;;;;;;;2.05;1.33;;;;;;;;;;5009588;28;20034;-76
2023/02/03 09:06:32;;;;;;;1.67;1.23;;;;;;;;;;5009106;28;20429;-85
2023/02/03 09:08:57;;;;;;;5.57;1.90;;;;;;;;;;5010254;28;20026;-83
2023/02/03 09:11:22;;;;;;;8.00;1.33;;;;;;;;;;5009223;28;20100;-83
2023/02/03 09:13:48;;;;;;;2.23;1.30;;;;;;;;;;5009172;28;20296;-81
2023/02/03 09:16:18;;;;;;;1.33;1.15;;;;;;;;;;5007646;28;20273;-84
2023/02/03 09:18:44;;;;;;;3.63;2.08;;;;;;;;;;5009888;28;20068;-83
2023/02/03 09:21:12;;;;;;;3.28;1.17;;;;;;;;;;5011068;28;20038;-83
2023/02/03 09:23:38;;;;;;;2.72;1.48;;;;;;;;;;5008237;28;20025;-73
2023/02/03 09:26:05;;;;;;;1.55;1.08;;;;;;;;;;5007993;28;20104;-73
2023/02/03 09:28:30;;;;;;;1.92;1.20;;;;;;;;;;5009170;28;20065;-75
2023/02/03 09:31:02;;;;;;;4.03;1.50;;;;;;;;;;5017077;28;20037;-74
2023/02/03 09:33:28;;;;;;;3.00;1.42;;;;;;;;;;5008533;28;20044;-73
2023/02/03 09:35:53;;;;;;;2.22;1.40;;;;;;;;;;5009950;28;20109;-73
2023/02/03 09:38:19;;;;;;;1.48;1.10;;;;;;;;;;4992324;28;20030;-72
2023/02/03 09:40:45;;;;;;;2.75;1.20;;;;;;;;;;5006647;28;20018;-74
2023/02/03 09:43:14;;;;;;;2.75;1.45;;;;;;;;;;5008351;28;20104;-72
2023/02/03 09:45:39;;;;;;;3.20;1.02;;;;;;;;;;4991838;28;20072;-73
2023/02/03 09:48:17;;;;;;;2.53;1.27;;;;;;;;;;5011290;28;20009;-74
2023/02/03 09:50:43;;;;;;;1.77;1.10;;;;;;;;;;5008215;28;20117;-73
2023/02/03 09:53:19;;;;;;;2.88;1.20;;;;;;;;;;5007552;28;20139;-73
2023/02/03 09:55:45;;;;;;;2.80;1.60;;;;;;;;;;5008207;28;20029;-74
2023/02/03 09:58:15;;;;;;;1.27;1.17;;;;;;;;;;5009048;28;20101;-71
2023/02/03 10:00:46;;;;;;;2.45;1.17;;;;;;;;;;5008583;28;20381;-72
2023/02/03 10:03:23;;;;;;;2.67;1.50;;;;;;;;;;5022746;28;20414;-81
2023/02/03 10:05:54;;;;;;;5.70;1.35;;;;;;;;;;5008869;28;20121;-80
2023/02/03 10:08:35;;;;;;;3.45;1.35;;;;;;;;;;5007630;28;20503;-81
2023/02/03 10:11:09;;;;;;;2.08;1.27;;;;;;;;;;5006626;28;20026;-79
2023/02/03 10:13:39;;;;;;;4.22;1.30;;;;;;;;;;5008672;28;20041;-80
2023/02/03 10:16:05;;;;;;;3.30;1.40;;;;;;;;;;5008981;28;20661;-81
2023/02/03 10:18:43;;;;;;;2.97;2.33;;;;;;;;;;5008592;28;20113;-86
2023/02/03 10:21:20;;;;;;;3.63;1.58;;;;;;;;;;5009947;28;20364;-69
2023/02/03 10:23:46;;;;;;;6.30;1.80;;;;;;;;;;5009711;28;20022;-68
2023/02/03 10:26:14;;;;;;;3.30;1.58;;;;;;;;;;5012124;28;20465;-67
2023/02/03 10:28:42;;;;;;;2.92;1.23;;;;;;;;;;5008159;28;20246;-70
2023/02/03 10:31:18;;;;;;;3.88;1.52;;;;;;;;;;5007708;28;20037;-67
2023/02/03 10:33:43;;;;;;;3.80;1.40;;;;;;;;;;5011550;28;20035;-69
2023/02/03 10:36:11;;;;;;;2.20;1.20;;;;;;;;;;5012722;28;20045;-81
2023/02/03 10:38:42;;;;;;;6.88;1.88;;;;;;;;;;5007993;28;20277;-70
2023/02/03 10:41:08;;;;;;;2.17;1.20;;;;;;;;;;5009342;28;20010;-70
2023/02/03 10:43:51;;;;;;;1.95;1.08;;;;;;;;;;5007653;28;20105;-69
2023/02/03 10:46:27;;;;;;;2.72;1.45;;;;;;;;;;5005323;28;20025;-70
2023/02/03 10:48:52;;;;;;;2.42;1.02;;;;;;;;;;5008873;28;20635;-68
2023/02/03 10:51:19;;;;;;;2.30;1.10;;;;;;;;;;5008875;28;20026;-70
2023/02/03 10:53:45;;;;;;;3.60;1.00;;;;;;;;;;5008228;28;20210;-69
2023/02/03 10:56:12;;;;;;;3.22;1.02;;;;;;;;;;4991135;28;20057;-69
2023/02/03 10:58:38;;;;;;;1.52;1.00;;;;;;;;;;5009891;28;20030;-79
2023/02/03 11:01:09;;;;;;;2.65;1.02;;;;;;;;;;5014606;28;20112;-80
2023/02/03 11:03:34;;;;;;;1.73;1.17;;;;;;;;;;5006223;28;20061;-81
2023/02/03 11:06:04;;;;;;;3.78;0.90;;;;;;;;;;5014376;28;20182;-80
2023/02/03 11:08:29;;;;;;;1.00;0.90;;;;;;;;;;5008421;28;20109;-79
2023/02/03 11:11:00;;;;;;;1.63;0.93;;;;;;;;;;5009121;28;20149;-79
2023/02/03 11:13:26;;;;;;;1.33;0.75;;;;;;;;;;5016053;28;20041;-73
2023/02/03 11:15:59;;;;;;;2.47;0.88;;;;;;;;;;5013871;28;20029;-72
2023/02/03 11:18:42;;;;;;;1.20;0.60;;;;;;;;;;5009354;28;20420;-74
2023/02/03 11:21:09;;;;;;;1.48;1.08;;;;;;;;;;5009522;28;20025;-72
2023/02/03 11:23:35;;;;;;;2.25;0.90;;;;;;;;;;5016323;28;20064;-74
2023/02/03 11:26:09;;;;;;;1.65;0.80;;;;;;;;;;5011539;28;20057;-73
2023/02/03 11:28:34;;;;;;;5.55;2.15;;;;;;;;;;5012960;28;20026;-75
2023/02/03 11:31:00;;;;;;;0.95;0.60;;;;;;;;;;4993894;28;20033;-68
2023/02/03 11:33:26;;;;;;;0.57;0.50;;;;;;;;;;5011881;28;20034;-68
2023/02/03 11:35:56;;;;;;;0.93;0.60;;;;;;;;;;5011261;28;20894;-81
2023/02/03 11:38:29;;;;;;;1.13;0.50;;;;;;;;;;5014752;28;20157;-77
2023/02/03 11:41:00;;;;;;;0.70;0.60;;;;;;;;;;5008633;28;20503;-79
2023/02/03 11:43:27;;;;;;;1.73;1.15;;;;;;;;;;5003390;28;20038;-78
2023/02/03 11:45:53;;;;;;;1.25;0.80;;;;;;;;;;5002036;28;20064;-80
2023/02/03 11:48:25;;;;;;;0.82;0.63;;;;;;;;;;5009509;28;20030;-80
2023/02/03 11:50:56;;;;;;;1.83;0.70;;;;;;;;;;5005801;28;20049;-74
2023/02/03 11:53:29;;;;;;;3.95;0.82;;;;;;;;;;5015463;28;20022;-69
2023/02/03 11:56:00;;;;;;;0.60;0.60;;;;;;;;;;5012046;28;20029;-68
2023/02/03 11:58:39;;;;;;;0.70;0.70;;;;;;;;;;5011056;28;20022;-68
2023/02/03 12:01:22;;;;;;;1.73;0.80;;;;;;;;;;5010814;28;20029;-69
2023/02/03 12:03:56;;;;;;;1.67;0.68;;;;;;;;;;5011313;28;20022;-69
2023/02/03 12:06:38;;;;;;;2.08;0.77;;;;;;;;;;5012433;28;20034;-69
2023/02/03 12:09:22;;;;;;;1.45;0.70;;;;;;;;;;5010261;28;20033;-73
2023/02/03 12:12:06;;;;;;;0.68;0.68;;;;;;;;;;5017959;28;20018;-68
2023/02/03 12:14:44;;;;;;;0.70;0.70;;;;;;;;;;5014106;28;20030;-67
2023/02/03 12:17:21;;;;;;;0.75;0.60;;;;;;;;;;5013310;28;20022;-71
2023/02/03 12:19:47;;;;;;;1.17;0.60;;;;;;;;;;5011185;28;20899;-68
2023/02/03 12:22:20;;;;;;;0.70;0.50;;;;;;;;;;5010744;28;20021;-70
2023/02/03 12:24:50;;;;;;;0.93;0.63;;;;;;;;;;5009517;28;20026;-68
2023/02/03 12:27:27;;;;;;;0.77;0.77;;;;;;;;;;5011512;28;20029;-68
2023/02/03 12:30:00;;;;;;;3.00;0.60;;;;;;;;;;5010320;28;20088;-69
2023/02/03 12:32:38;;;;;;;1.60;0.60;;;;;;;;;;5009075;28;20030;-69
2023/02/03 12:35:03;;;;;;;2.10;0.88;;;;;;;;;;5009735;28;20026;-67
2023/02/03 12:38:01;;;;;;;0.70;0.60;;;;;;;;;;5011975;28;20025;-67
2023/02/03 12:40:36;;;;;;;0.75;0.60;;;;;;;;;;4955998;28;20038;-64
2023/02/03 12:43:19;;;;;;;1.85;0.85;;;;;;;;;;5015646;28;20021;-68
2023/02/03 12:45:50;;;;;;;2.60;0.63;;;;;;;;;;5011722;28;20390;-68
2023/02/03 12:48:17;;;;;;;0.70;0.70;;;;;;;;;;5010573;28;20076;-85
2023/02/03 12:50:44;;;;;;;0.68;0.43;;;;;;;;;;4992754;28;20125;-82
2023/02/03 12:53:10;;;;;;;0.70;0.57;;;;;;;;;;5015060;28;20044;-80
2023/02/03 12:55:40;;;;;;;1.50;0.87;;;;;;;;;;5006111;28;20029;-79
2023/02/03 12:58:05;;;;;;;0.68;0.63;;;;;;;;;;5011127;28;20014;-82
2023/02/03 13:00:37;;;;;;;0.50;0.50;;;;;;;;;;5012030;28;20032;-82
2023/02/03 13:03:18;;;;;;;0.60;0.60;;;;;;;;;;5011589;28;20044;-72
2023/02/03 13:05:48;;;;;;;0.90;0.60;;;;;;;;;;5010401;28;20022;-74
2023/02/03 13:08:19;;;;;;;0.85;0.50;;;;;;;;;;5010286;28;20022;-76
2023/02/03 13:10:49;;;;;;;0.80;0.80;;;;;;;;;;5009865;28;20060;-73
2023/02/03 13:13:16;;;;;;;0.60;0.60;;;;;;;;;;5012562;28;20826;-72
2023/02/03 13:15:46;;;;;;;1.60;1.00;;;;;;;;;;5014668;28;20018;-71
2023/02/03 13:18:11;;;;;;;;;;;;;;;;;;5010118;28;20080;-70
2023/02/03 13:20:36;;;;;;;0.85;0.82;;;;;;;;;;5009836;28;19917;-73
2023/02/03 13:23:09;;;;;;;1.13;0.90;;;;;;;;;;5011007;28;20602;-83
2023/02/03 13:25:50;;;;;;;1.83;1.25;;;;;;;;;;5009496;28;20052;-72
2023/02/03 13:28:23;;;;;;;0.95;0.85;;;;;;;;;;5009581;28;20014;-73
2023/02/03 13:31:06;;;;;;;0.82;0.82;;;;;;;;;;4994632;28;20022;-71
2023/02/03 13:33:41;;;;;;;0.98;0.68;;;;;;;;;;5009026;28;20529;-72
2023/02/03 13:36:09;;;;;;;2.15;1.30;;;;;;;;;;5011385;28;20021;-71
2023/02/03 13:38:43;;;;;;;0.50;0.50;;;;;;;;;;5007483;28;20053;-71
2023/02/03 13:41:29;;;;;;;1.05;0.60;;;;;;;;;;5005996;28;20083;-82
2023/02/03 13:43:55;;;;;;;1.92;0.73;;;;;;;;;;5009227;28;20124;-71
2023/02/03 13:46:29;;;;;;;1.23;0.80;;;;;;;;;;5016718;28;20030;-73
2023/02/03 13:48:56;;;;;;;0.80;0.68;;;;;;;;;;5004377;28;20018;-72
2023/02/03 13:51:28;;;;;;;1.38;0.70;;;;;;;;;;5008984;28;20021;-72
2023/02/03 13:53:58;;;;;;;1.45;0.80;;;;;;;;;;4990280;28;20142;-75
2023/02/03 13:56:23;;;;;;;;;;;;;;;;;;5009183;28;20010;-74
2023/02/03 13:58:59;;;;;;;0.70;0.70;;;;;;;;;;5008605;28;19914;-75
2023/02/03 14:01:28;;;;;;;1.45;0.65;;;;;;;;;;5008243;28;20671;-83
2023/02/03 14:03:53;;;;;;;1.35;0.80;;;;;;;;;;5008407;28;20018;-79
2023/02/03 14:06:36;;;;;;;0.75;0.70;;;;;;;;;;5008915;28;20025;-80
2023/02/03 14:09:20;;;;;;;2.38;1.05;;;;;;;;;;5009329;28;20022;-82
2023/02/03 14:11:46;;;;;;;0.77;0.60;;;;;;;;;;5003333;28;20030;-82
2023/02/03 14:14:11;;;;;;;0.68;0.68;;;;;;;;;;5008674;28;20029;-80
2023/02/03 14:16:40;;;;;;;0.50;0.50;;;;;;;;;;5010694;28;20020;-80
2023/02/03 14:19:09;;;;;;;2.92;0.82;;;;;;;;;;5015484;28;20118;-70
2023/02/03 14:21:45;;;;;;;1.80;0.50;;;;;;;;;;5002167;28;20030;-81
2023/02/03 14:24:11;;;;;;;0.85;0.60;;;;;;;;;;5008577;28;20028;-83
2023/02/03 14:26:41;;;;;;;1.38;0.70;;;;;;;;;;5008407;28;20022;-84
2023/02/03 14:29:07;;;;;;;0.50;0.50;;;;;;;;;;4990100;28;20026;-84
2023/02/03 14:31:51;;;;;;;0.93;0.80;;;;;;;;;;5008533;28;20026;-82
2023/02/03 14:34:16;;;;;;;0.85;0.55;;;;;;;;;;5006372;28;20041;-82
2023/02/03 14:36:43;;;;;;;2.35;0.60;;;;;;;;;;5009109;28;20566;-71
2023/02/03 14:39:17;;;;;;;0.82;0.60;;;;;;;;;;5012593;28;20022;-73
2023/02/03 14:41:42;;;;;;;3.35;0.65;;;;;;;;;;5006840;28;20048;-76
2023/02/03 14:44:26;;;;;;;1.03;0.60;;;;;;;;;;5008733;28;20497;-75
2023/02/03 14:47:04;;;;;;;1.48;0.70;;;;;;;;;;5008613;28;20479;-74
2023/02/03 14:49:36;;;;;;;1.52;0.85;;;;;;;;;;5013269;28;20104;-73
2023/02/03 14:52:07;;;;;;;0.77;0.60;;;;;;;;;;5014852;28;20146;-74